createdAt,value
2019-01-23T00:00:15.946Z,100244.51
2019-01-23T00:02:44.415Z,100249.60
2019-01-23T00:05:12.921Z,100237.36
2019-01-23T00:07:41.390Z,100234.72
2019-01-23T00:10:09.967Z,100230.94
2019-01-23T00:12:38.422Z,100232.27
2019-01-23T00:15:07.895Z,100230.22
2019-01-23T00:17:36.357Z,100226.71
2019-01-23T00:20:07.911Z,100217.14
2019-01-23T00:22:36.369Z,100215.09
2019-01-23T00:25:07.537Z,100215.09
2019-01-23T00:27:35.989Z,100208.91
2019-01-23T00:30:07.738Z,100206.27
2019-01-23T00:32:36.200Z,100203.36
2019-01-23T00:35:05.765Z,100200.33
2019-01-23T00:37:34.229Z,100198.27
2019-01-23T00:40:02.730Z,100193.78
2019-01-23T00:42:31.270Z,100191.73
2019-01-23T00:44:59.707Z,100193.78
2019-01-23T00:47:28.139Z,100197.54
2019-01-23T00:49:56.594Z,100193.66
2019-01-23T00:52:25.027Z,100187.99
2019-01-23T00:54:53.486Z,100187.13
2019-01-23T00:57:21.917Z,100181.80
2019-01-23T00:59:50.374Z,100194.66
2019-01-23T01:02:18.808Z,100193.45
2019-01-23T01:04:47.336Z,100189.56
2019-01-23T01:07:15.833Z,100185.95
2019-01-23T01:09:44.370Z,100178.79
2019-01-23T01:12:12.804Z,100183.27
2019-01-23T01:14:41.272Z,100183.25
2019-01-23T01:17:09.708Z,100183.77
2019-01-23T01:19:38.156Z,100182.66
2019-01-23T01:22:06.592Z,100178.92
2019-01-23T01:24:35.054Z,100181.09
2019-01-23T01:27:03.487Z,100184.95
2019-01-23T01:29:31.947Z,100183.27
2019-01-23T01:32:00.526Z,100186.89
2019-01-23T01:34:28.987Z,100191.62
2019-01-23T01:36:57.564Z,100185.91
2019-01-23T01:39:25.990Z,100182.41
2019-01-23T01:41:54.448Z,100180.71
2019-01-23T01:44:22.884Z,100183.02
2019-01-23T01:46:51.424Z,100184.97
2019-01-23T01:49:19.861Z,100180.98
2019-01-23T01:51:48.399Z,100182.89
2019-01-23T01:54:16.829Z,100183.52
2019-01-23T01:56:45.293Z,100184.23
2019-01-23T01:59:13.725Z,100183.14
2019-01-23T02:01:42.178Z,100177.81
2019-01-23T02:04:10.614Z,100180.36
2019-01-23T02:06:39.067Z,100184.21
2019-01-23T02:09:08.539Z,100183.02
2019-01-23T02:11:37.001Z,100189.18
2019-01-23T02:14:05.503Z,100189.16
2019-01-23T02:16:33.959Z,100183.00
2019-01-23T02:19:02.394Z,100178.39
2019-01-23T02:21:30.852Z,100182.84
2019-01-23T02:23:59.315Z,100178.75
2019-01-23T02:26:27.745Z,100175.84
2019-01-23T02:28:56.180Z,100178.13
2019-01-23T02:31:24.634Z,100174.14
2019-01-23T02:33:53.087Z,100169.67
2019-01-23T02:36:21.543Z,100174.14
2019-01-23T02:38:49.971Z,100175.70
2019-01-23T02:41:18.435Z,100167.38
2019-01-23T02:43:46.866Z,100165.30
2019-01-23T02:46:15.355Z,100163.39
2019-01-23T02:48:43.794Z,100170.52
2019-01-23T02:51:12.228Z,100163.00
2019-01-23T02:53:40.686Z,100167.83
2019-01-23T02:56:09.192Z,100159.88
2019-01-23T02:58:37.652Z,100162.16
2019-01-23T03:01:06.092Z,100162.75
2019-01-23T03:03:34.553Z,100158.30
2019-01-23T03:06:03.059Z,100156.98
2019-01-23T03:08:31.513Z,100154.19
2019-01-23T03:10:59.941Z,100152.24
2019-01-23T03:13:28.444Z,100160.35
2019-01-23T03:15:56.912Z,100161.67
2019-01-23T03:18:25.360Z,100163.59
2019-01-23T03:20:53.861Z,100158.77
2019-01-23T03:23:22.324Z,100160.22
2019-01-23T03:25:50.750Z,100160.70
2019-01-23T03:28:19.217Z,100164.44
2019-01-23T03:30:47.650Z,100167.45
2019-01-23T03:33:16.110Z,100156.46
2019-01-23T03:35:44.544Z,100153.58
2019-01-23T03:38:12.997Z,100165.02
2019-01-23T03:40:41.423Z,100165.73
2019-01-23T03:43:09.950Z,100159.92
2019-01-23T03:45:38.388Z,100158.73
2019-01-23T03:48:06.823Z,100159.05
2019-01-23T03:50:35.281Z,100155.02
2019-01-23T03:53:03.716Z,100152.84
2019-01-23T03:55:32.178Z,100159.53
2019-01-23T03:58:00.612Z,100156.97
2019-01-23T04:00:29.068Z,100163.61
2019-01-23T04:02:57.576Z,100167.20
2019-01-23T04:05:26.102Z,100162.98
2019-01-23T04:07:54.536Z,100164.55
2019-01-23T04:10:22.996Z,100156.44
2019-01-23T04:12:51.498Z,100158.83
2019-01-23T04:15:19.955Z,100159.89
2019-01-23T04:17:48.389Z,100165.06
2019-01-23T04:20:19.083Z,100155.59
2019-01-23T04:22:47.688Z,100159.80
2019-01-23T04:25:16.222Z,100170.66
2019-01-23T04:27:44.686Z,100169.59
2019-01-23T04:30:18.852Z,100163.30
2019-01-23T04:32:47.425Z,100166.94
2019-01-23T04:35:15.959Z,100164.14
2019-01-23T04:37:44.453Z,100170.64
2019-01-23T04:40:14.151Z,100170.78
2019-01-23T04:42:42.721Z,100169.33
2019-01-23T04:45:16.201Z,100177.47
2019-01-23T04:47:44.770Z,100170.92
2019-01-23T04:50:15.371Z,100172.61
2019-01-23T04:52:45.444Z,100171.75
2019-01-23T04:55:13.969Z,100177.16
2019-01-23T04:57:42.403Z,100178.70
2019-01-23T05:00:14.245Z,100179.59
2019-01-23T05:02:42.683Z,100183.58
2019-01-23T05:05:11.376Z,100178.00
2019-01-23T05:07:39.802Z,100184.02
2019-01-23T05:10:08.398Z,100185.27
2019-01-23T05:12:36.897Z,100179.09
2019-01-23T05:15:07.694Z,100179.23
2019-01-23T05:17:36.119Z,100184.99
2019-01-23T05:20:07.745Z,100173.04
2019-01-23T05:22:36.278Z,100180.87
2019-01-23T05:25:05.947Z,100181.43
2019-01-23T05:27:34.410Z,100184.23
2019-01-23T05:30:02.907Z,100189.18
2019-01-23T05:32:31.367Z,100188.12
2019-01-23T05:34:59.796Z,100194.62
2019-01-23T05:37:28.252Z,100189.27
2019-01-23T05:39:56.698Z,100192.32
2019-01-23T05:42:25.161Z,100195.55
2019-01-23T05:44:53.585Z,100196.11
2019-01-23T05:47:22.059Z,100195.84
2019-01-23T05:49:50.482Z,100194.98
2019-01-23T05:52:18.939Z,100185.16
2019-01-23T05:54:47.450Z,100185.77
2019-01-23T05:57:15.904Z,100190.10
2019-01-23T05:59:44.333Z,100185.01
2019-01-23T06:02:12.796Z,100187.09
2019-01-23T06:04:41.227Z,100184.05
2019-01-23T06:07:09.686Z,100187.94
2019-01-23T06:09:38.114Z,100196.05
2019-01-23T06:12:06.614Z,100194.16
2019-01-23T06:14:35.143Z,100192.83
2019-01-23T06:17:03.574Z,100194.30
2019-01-23T06:19:32.097Z,100197.17
2019-01-23T06:22:00.533Z,100191.72
2019-01-23T06:24:29.003Z,100202.00
2019-01-23T06:26:57.418Z,100197.44
2019-01-23T06:29:25.878Z,100201.84
2019-01-23T06:31:54.320Z,100200.79
2019-01-23T06:34:22.772Z,100200.14
2019-01-23T06:36:51.206Z,100204.97
2019-01-23T06:39:19.658Z,100201.91
2019-01-23T06:41:48.095Z,100209.03
2019-01-23T06:44:16.552Z,100205.33
2019-01-23T06:46:44.984Z,100212.50
2019-01-23T06:49:13.433Z,100210.27
2019-01-23T06:51:41.870Z,100210.60
2019-01-23T06:54:10.327Z,100217.39
2019-01-23T06:56:38.758Z,100220.05
2019-01-23T06:59:07.210Z,100229.39
2019-01-23T07:01:35.638Z,100229.92
2019-01-23T07:04:04.159Z,100228.59
2019-01-23T07:06:32.592Z,100231.61
2019-01-23T07:09:01.050Z,100235.08
2019-01-23T07:11:29.479Z,100228.92
2019-01-23T07:13:57.932Z,100233.20
2019-01-23T07:16:26.365Z,100242.12
2019-01-23T07:18:54.818Z,100240.74
2019-01-23T07:21:23.246Z,100240.37
2019-01-23T07:23:51.679Z,100246.09
2019-01-23T07:26:20.136Z,100249.02
2019-01-23T07:28:49.336Z,100251.95
2019-01-23T07:31:18.017Z,100254.92
2019-01-23T07:33:46.503Z,100254.42
2019-01-23T07:36:15.035Z,100253.22
2019-01-23T07:38:43.468Z,100255.96
2019-01-23T07:41:11.997Z,100260.60
2019-01-23T07:43:40.428Z,100260.33
2019-01-23T07:46:08.899Z,100268.86
2019-01-23T07:48:37.329Z,100256.08
2019-01-23T07:51:05.792Z,100262.16
2019-01-23T07:53:34.218Z,100261.25
2019-01-23T07:56:02.690Z,100262.50
2019-01-23T07:58:31.117Z,100269.06
2019-01-23T08:00:59.575Z,100263.31
2019-01-23T08:03:28.073Z,100277.58
2019-01-23T08:05:56.531Z,100272.89
2019-01-23T08:08:24.968Z,100267.84
2019-01-23T08:10:53.422Z,100278.97
2019-01-23T08:13:21.938Z,100267.49
2019-01-23T08:15:50.403Z,100261.34
2019-01-23T08:18:18.838Z,100268.25
2019-01-23T08:20:47.297Z,100268.39
2019-01-23T08:23:15.734Z,100267.58
2019-01-23T08:25:44.165Z,100266.71
2019-01-23T08:28:12.707Z,100271.67
2019-01-23T08:30:41.138Z,100263.83
2019-01-23T08:33:09.594Z,100269.50
2019-01-23T08:35:38.024Z,100264.58
2019-01-23T08:38:06.491Z,100263.87
2019-01-23T08:40:34.929Z,100265.95
2019-01-23T08:43:03.387Z,100263.77
2019-01-23T08:45:31.987Z,100273.56
2019-01-23T08:48:00.455Z,100270.91
2019-01-23T08:50:31.826Z,100271.52
2019-01-23T08:53:00.354Z,100265.81
2019-01-23T08:55:28.862Z,100268.15
2019-01-23T08:57:57.321Z,100268.86
2019-01-23T09:00:26.258Z,100268.77
2019-01-23T09:02:54.797Z,100276.97
2019-01-23T09:05:23.293Z,100275.77
2019-01-23T09:07:51.755Z,100276.88
2019-01-23T09:10:22.793Z,100276.39
2019-01-23T09:12:51.495Z,100275.31
2019-01-23T09:15:20.000Z,100279.08
2019-01-23T09:17:48.533Z,100265.30
2019-01-23T09:20:19.003Z,100277.05
2019-01-23T09:22:47.438Z,100271.86
2019-01-23T09:25:18.042Z,100279.34
2019-01-23T09:27:46.643Z,100281.42
2019-01-23T09:30:30.270Z,100277.42
2019-01-23T09:33:23.126Z,100282.52
2019-01-23T09:36:06.585Z,100290.00
2019-01-23T09:38:54.759Z,100278.48
2019-01-23T09:41:47.563Z,100279.92
2019-01-23T09:44:27.998Z,100284.88
2019-01-23T09:47:11.508Z,100276.08
2019-01-23T09:49:46.077Z,100275.61
2019-01-23T09:52:49.587Z,100291.34
2019-01-23T09:55:18.050Z,100277.66
2019-01-23T09:57:46.826Z,100277.30
2019-01-23T10:00:20.721Z,100279.14
2019-01-23T10:02:49.164Z,100279.03
2019-01-23T10:05:17.691Z,100277.30
2019-01-23T10:07:46.125Z,100286.76
2019-01-23T10:10:19.587Z,100284.09
2019-01-23T10:12:48.021Z,100284.96
2019-01-23T10:15:22.664Z,100287.96
2019-01-23T10:17:51.099Z,100281.69
2019-01-23T10:20:19.630Z,100282.75
2019-01-23T10:22:48.066Z,100286.14
2019-01-23T10:25:16.920Z,100286.30
2019-01-23T10:27:45.431Z,100286.62
2019-01-23T10:30:15.442Z,100281.32
2019-01-23T10:32:43.867Z,100282.14
2019-01-23T10:35:15.868Z,100283.61
2019-01-23T10:37:44.300Z,100286.87
2019-01-23T10:40:17.602Z,100284.97
2019-01-23T10:42:46.068Z,100288.34
2019-01-23T10:45:17.648Z,100287.98
2019-01-23T10:47:46.159Z,100284.11
2019-01-23T10:50:16.517Z,100286.30
2019-01-23T10:52:45.024Z,100290.91
2019-01-23T10:55:13.724Z,100282.28
2019-01-23T10:57:42.626Z,100283.70
2019-01-23T11:00:17.082Z,100282.62
2019-01-23T11:02:45.663Z,100286.15
2019-01-23T11:05:17.134Z,100280.11
2019-01-23T11:07:45.639Z,100281.19
2019-01-23T11:10:17.279Z,100275.63
2019-01-23T11:12:45.711Z,100272.22
2019-01-23T11:15:14.580Z,100280.23
2019-01-23T11:17:43.116Z,100270.31
2019-01-23T11:20:17.253Z,100271.88
2019-01-23T11:22:45.851Z,100268.95
2019-01-23T11:25:15.529Z,100265.94
2019-01-23T11:27:44.833Z,100264.48
2019-01-23T11:30:21.971Z,100266.52
2019-01-23T11:32:50.439Z,100268.11
2019-01-23T11:35:18.956Z,100261.25
2019-01-23T11:37:47.484Z,100261.88
2019-01-23T11:40:27.214Z,100265.84
2019-01-23T11:42:55.675Z,100262.09
2019-01-23T11:45:24.192Z,100255.84
2019-01-23T11:47:52.820Z,100257.97
2019-01-23T11:50:23.086Z,100265.16
2019-01-23T11:52:51.681Z,100261.55
2019-01-23T11:55:20.101Z,100267.94
2019-01-23T11:57:48.561Z,100262.20
2019-01-23T12:00:19.673Z,100271.73
2019-01-23T12:02:48.116Z,100265.59
2019-01-23T12:05:18.385Z,100265.77
2019-01-23T12:07:47.183Z,100267.41
2019-01-23T12:10:20.825Z,100268.83
2019-01-23T12:12:49.426Z,100265.27
2019-01-23T12:15:19.892Z,100266.70
2019-01-23T12:17:48.424Z,100267.69
2019-01-23T12:20:16.991Z,100272.72
2019-01-23T12:22:45.508Z,100269.96
2019-01-23T12:25:14.809Z,100270.14
2019-01-23T12:27:43.332Z,100270.64
2019-01-23T12:30:17.784Z,100274.72
2019-01-23T12:32:46.310Z,100269.04
2019-01-23T12:35:14.867Z,100278.23
2019-01-23T12:37:43.317Z,100277.13
2019-01-23T12:40:14.088Z,100275.50
2019-01-23T12:42:42.629Z,100277.92
2019-01-23T12:45:14.255Z,100269.48
2019-01-23T12:47:42.775Z,100273.17
2019-01-23T12:50:14.307Z,100273.64
2019-01-23T12:52:42.831Z,100273.30
2019-01-23T12:55:11.395Z,100269.30
2019-01-23T12:57:39.852Z,100270.23
2019-01-23T13:00:14.568Z,100267.63
2019-01-23T13:02:43.088Z,100278.64
2019-01-23T13:05:13.445Z,100277.63
2019-01-23T13:07:41.913Z,100267.83
2019-01-23T13:10:13.344Z,100270.30
2019-01-23T13:12:41.931Z,100268.78
2019-01-23T13:15:18.951Z,100264.08
2019-01-23T13:17:47.477Z,100269.17
2019-01-23T13:20:17.740Z,100271.44
2019-01-23T13:22:46.280Z,100270.45
2019-01-23T13:25:17.052Z,100262.92
2019-01-23T13:27:45.549Z,100267.52
2019-01-23T13:30:19.370Z,100262.38
2019-01-23T13:32:47.952Z,100260.45
2019-01-23T13:35:19.330Z,100259.78
2019-01-23T13:37:47.839Z,100263.44
2019-01-23T13:40:24.964Z,100272.23
2019-01-23T13:42:53.535Z,100275.31
2019-01-23T13:45:22.245Z,100273.07
2019-01-23T13:47:51.008Z,100283.00
2019-01-23T13:50:20.134Z,100285.53
2019-01-23T13:52:48.909Z,100281.88
2019-01-23T13:55:21.288Z,100279.80
2019-01-23T13:57:50.495Z,100282.71
2019-01-23T14:00:24.897Z,100279.94
2019-01-23T14:02:53.776Z,100276.15
2019-01-23T14:05:22.580Z,100274.95
2019-01-23T14:07:51.455Z,100284.83
2019-01-23T14:10:20.488Z,100289.33
2019-01-23T14:12:49.264Z,100284.87
2019-01-23T14:15:24.167Z,100278.34
2019-01-23T14:17:52.839Z,100280.62
2019-01-23T14:20:21.864Z,100279.53
2019-01-23T14:22:50.435Z,100275.04
2019-01-23T14:25:19.125Z,100279.78
2019-01-23T14:27:47.901Z,100287.78
2019-01-23T14:30:25.779Z,100285.60
2019-01-23T14:32:54.555Z,100285.47
2019-01-23T14:35:23.469Z,100282.45
2019-01-23T14:37:52.135Z,100282.69
2019-01-23T14:40:20.841Z,100282.83
2019-01-23T14:42:49.637Z,100289.74
2019-01-23T14:45:19.255Z,100297.73
2019-01-23T14:47:47.929Z,100298.01
2019-01-23T14:50:18.633Z,100294.11
2019-01-23T14:52:48.508Z,100296.55
2019-01-23T14:55:17.297Z,100304.55
2019-01-23T14:57:46.507Z,100301.03
2019-01-23T15:00:26.995Z,100300.45
2019-01-23T15:02:56.001Z,100306.52
2019-01-23T15:05:24.908Z,100309.16
2019-01-23T15:07:53.807Z,100311.97
2019-01-23T15:10:24.987Z,100310.27
2019-01-23T15:12:54.430Z,100319.59
2019-01-23T15:15:24.259Z,100312.69
2019-01-23T15:17:53.744Z,100321.05
2019-01-23T15:20:28.071Z,100322.27
2019-01-23T15:22:57.410Z,100325.53
2019-01-23T15:25:26.548Z,100334.22
2019-01-23T15:27:56.079Z,100329.97
2019-01-23T15:30:25.572Z,100337.02
2019-01-23T15:32:55.314Z,100331.18
2019-01-23T15:35:24.448Z,100334.56
2019-01-23T15:37:54.471Z,100338.56
2019-01-23T15:40:29.423Z,100335.28
2019-01-23T15:42:58.946Z,100343.52
2019-01-23T15:45:28.754Z,100348.01
2019-01-23T15:47:58.982Z,100346.78
2019-01-23T15:50:28.914Z,100344.95
2019-01-23T15:52:58.771Z,100352.46
2019-01-23T15:55:28.769Z,100343.21
2019-01-23T15:57:58.641Z,100354.61
2019-01-23T16:00:32.526Z,100355.32
2019-01-23T16:03:02.286Z,100365.48
2019-01-23T16:05:32.089Z,100366.91
2019-01-23T16:08:01.643Z,100379.23
2019-01-23T16:10:31.444Z,100375.70
2019-01-23T16:13:01.089Z,100383.67
2019-01-23T16:15:30.906Z,100382.30
2019-01-23T16:18:00.754Z,100383.40
2019-01-23T16:20:30.254Z,100384.69
2019-01-23T16:23:00.118Z,100388.76
2019-01-23T16:25:29.915Z,100394.77
2019-01-23T16:28:00.278Z,100394.23
2019-01-23T16:30:34.779Z,100398.56
2019-01-23T16:33:05.047Z,100398.19
2019-01-23T16:35:38.645Z,100405.66
2019-01-23T16:38:06.961Z,100411.14
2019-01-23T16:40:36.876Z,100412.38
2019-01-23T16:43:06.733Z,100415.07
2019-01-23T16:45:36.434Z,100412.69
2019-01-23T16:48:06.292Z,100416.03
2019-01-23T16:50:35.992Z,100413.29
2019-01-23T16:53:06.286Z,100413.86
2019-01-23T16:55:35.868Z,100415.36
2019-01-23T16:58:07.266Z,100424.71
2019-01-23T17:00:37.018Z,100421.25
2019-01-23T17:03:07.297Z,100425.30
2019-01-23T17:05:37.028Z,100423.52
2019-01-23T17:08:07.158Z,100423.37
2019-01-23T17:10:37.322Z,100426.61
2019-01-23T17:13:07.332Z,100429.66
2019-01-23T17:15:37.394Z,100430.20
2019-01-23T17:18:07.232Z,100431.17
2019-01-23T17:20:39.404Z,100430.56
2019-01-23T17:23:09.310Z,100434.28
2019-01-23T17:25:39.564Z,100434.98
2019-01-23T17:28:09.794Z,100435.22
2019-01-23T17:30:39.645Z,100438.66
2019-01-23T17:33:09.458Z,100446.48
2019-01-23T17:35:39.207Z,100442.91
2019-01-23T17:38:09.620Z,100445.86
2019-01-23T17:40:39.581Z,100449.73
2019-01-23T17:43:10.057Z,100442.55
2019-01-23T17:45:40.665Z,100448.55
2019-01-23T17:48:11.612Z,100452.48
2019-01-23T17:50:41.861Z,100458.84
2019-01-23T17:53:11.771Z,100455.39
2019-01-23T17:55:42.150Z,100464.55
2019-01-23T17:58:12.557Z,100464.11
2019-01-23T18:00:44.574Z,100465.68
2019-01-23T18:03:14.463Z,100464.35
2019-01-23T18:05:50.976Z,100475.91
2019-01-23T18:08:16.488Z,100475.66
2019-01-23T18:10:46.552Z,100484.02
2019-01-23T18:13:16.253Z,100490.39
2019-01-23T18:15:46.806Z,100488.73
2019-01-23T18:18:16.828Z,100497.70
2019-01-23T18:20:47.086Z,100504.38
2019-01-23T18:23:17.516Z,100506.38
2019-01-23T18:25:47.582Z,100504.89
2019-01-23T18:28:17.602Z,100504.78
2019-01-23T18:31:01.594Z,100509.91
2019-01-23T18:33:42.548Z,100507.38
2019-01-23T18:36:20.059Z,100509.54
2019-01-23T18:39:01.125Z,100516.70
2019-01-23T18:41:48.064Z,100516.20
2019-01-23T18:44:32.299Z,100516.79
2019-01-23T18:47:10.185Z,100521.59
2019-01-23T18:49:58.204Z,100528.94
2019-01-23T18:52:28.556Z,100529.09
2019-01-23T18:54:58.535Z,100531.64
2019-01-23T18:57:33.126Z,100534.58
2019-01-23T19:00:03.448Z,100537.63
2019-01-23T19:02:33.814Z,100536.59
2019-01-23T19:05:04.928Z,100536.78
2019-01-23T19:07:35.308Z,100543.17
2019-01-23T19:10:06.592Z,100552.27
2019-01-23T19:12:37.024Z,100550.77
2019-01-23T19:15:09.182Z,100554.72
2019-01-23T19:17:39.645Z,100544.19
2019-01-23T19:20:11.740Z,100556.62
2019-01-23T19:22:42.478Z,100560.12
2019-01-23T19:25:12.892Z,100561.73
2019-01-23T19:27:43.350Z,100561.81
2019-01-23T19:30:18.353Z,100549.86
2019-01-23T19:32:48.757Z,100557.83
2019-01-23T19:35:18.967Z,100560.60
2019-01-23T19:37:49.530Z,100568.93
2019-01-23T19:40:19.871Z,100569.41
2019-01-23T19:42:50.531Z,100578.42
2019-01-23T19:45:21.807Z,100578.06
2019-01-23T19:47:52.110Z,100582.33
2019-01-23T19:50:22.652Z,100585.27
2019-01-23T19:52:53.229Z,100589.98
2019-01-23T19:55:23.459Z,100596.05
2019-01-23T19:57:54.393Z,100596.42
2019-01-23T20:00:25.271Z,100598.52
2019-01-23T20:02:55.893Z,100605.41
2019-01-23T20:05:27.139Z,100607.50
2019-01-23T20:07:58.242Z,100612.70
2019-01-23T20:10:28.813Z,100607.78
2019-01-23T20:12:59.225Z,100618.77
2019-01-23T20:15:29.650Z,100625.05
2019-01-23T20:18:00.319Z,100621.73
2019-01-23T20:20:30.847Z,100627.33
2019-01-23T20:23:01.287Z,100634.48
2019-01-23T20:25:32.398Z,100639.50
2019-01-23T20:28:03.198Z,100639.78
2019-01-23T20:30:34.928Z,100646.91
2019-01-23T20:33:05.280Z,100648.59
2019-01-23T20:35:35.741Z,100659.14
2019-01-23T20:38:06.300Z,100659.22
2019-01-23T20:40:36.880Z,100665.38
2019-01-23T20:43:07.394Z,100665.30
2019-01-23T20:45:37.961Z,100664.34
2019-01-23T20:48:08.204Z,100670.90
2019-01-23T20:50:38.559Z,100675.33
2019-01-23T20:53:08.672Z,100671.27
2019-01-23T20:55:39.050Z,100683.70
2019-01-23T20:58:09.246Z,100679.60
2019-01-23T21:00:39.379Z,100687.09
2019-01-23T21:03:09.624Z,100682.85
2019-01-23T21:05:39.585Z,100694.87
2019-01-23T21:08:10.000Z,100688.23
2019-01-23T21:10:40.070Z,100693.19
2019-01-23T21:13:09.973Z,100696.86
2019-01-23T21:15:40.339Z,100697.63
2019-01-23T21:18:10.442Z,100699.70
2019-01-23T21:20:40.310Z,100699.02
2019-01-23T21:23:10.313Z,100695.04
2019-01-23T21:25:40.589Z,100697.61
2019-01-23T21:28:10.587Z,100701.86
2019-01-23T21:30:40.952Z,100701.48
2019-01-23T21:33:10.962Z,100708.50
2019-01-23T21:35:41.022Z,100697.61
2019-01-23T21:38:10.836Z,100710.67
2019-01-23T21:40:40.893Z,100711.33
2019-01-23T21:43:10.732Z,100710.77
2019-01-23T21:45:40.503Z,100714.19
2019-01-23T21:48:10.671Z,100712.09
2019-01-23T21:50:40.529Z,100711.98
2019-01-23T21:53:10.434Z,100708.88
2019-01-23T21:55:40.083Z,100711.42
2019-01-23T21:58:09.783Z,100709.90
2019-01-23T22:00:41.292Z,100724.03
2019-01-23T22:03:11.282Z,100713.29
2019-01-23T22:05:40.213Z,100728.78
2019-01-23T22:08:09.723Z,100730.84
2019-01-23T22:10:38.791Z,100732.09
2019-01-23T22:13:07.559Z,100735.12
2019-01-23T22:15:36.466Z,100740.44
2019-01-23T22:18:05.869Z,100740.80
2019-01-23T22:20:35.560Z,100743.45
2019-01-23T22:23:04.439Z,100739.36
2019-01-23T22:25:33.129Z,100746.00
2019-01-23T22:28:01.900Z,100755.59
2019-01-23T22:30:32.705Z,100755.95
2019-01-23T22:33:01.585Z,100756.24
2019-01-23T22:35:30.416Z,100761.08
2019-01-23T22:37:59.440Z,100761.48
2019-01-23T22:40:28.010Z,100751.70
2019-01-23T22:42:56.610Z,100759.47
2019-01-23T22:45:25.195Z,100766.00
2019-01-23T22:47:53.889Z,100770.28
2019-01-23T22:50:24.575Z,100775.96
2019-01-23T22:52:53.570Z,100777.66
2019-01-23T22:55:22.134Z,100774.07
2019-01-23T22:57:50.767Z,100775.41
2019-01-23T23:00:24.966Z,100777.58
2019-01-23T23:02:53.694Z,100780.13
2019-01-23T23:05:22.210Z,100784.88
2019-01-23T23:07:50.657Z,100784.28
2019-01-23T23:10:19.227Z,100787.71
2019-01-23T23:12:47.684Z,100784.09
2019-01-23T23:15:16.548Z,100781.06
2019-01-23T23:17:45.013Z,100790.37
2019-01-23T23:20:13.910Z,100784.20
2019-01-23T23:22:42.370Z,100793.03
2019-01-23T23:25:11.031Z,100793.77
2019-01-23T23:27:39.752Z,100787.40
2019-01-23T23:30:22.392Z,100799.73
2019-01-23T23:32:50.920Z,100796.99
2019-01-23T23:35:19.421Z,100802.11
2019-01-23T23:37:47.881Z,100797.72
2019-01-23T23:40:16.858Z,100796.68
2019-01-23T23:42:45.360Z,100807.20
2019-01-23T23:45:18.460Z,100819.17
2019-01-23T23:47:46.959Z,100816.06
2019-01-23T23:50:16.453Z,100815.83
2019-01-23T23:52:45.025Z,100817.64
2019-01-23T23:55:15.995Z,100824.69
2019-01-23T23:57:44.573Z,100821.52
